createdAt,value
2024-03-12T00:00:53.626Z,168.80
2024-03-12T00:01:53.593Z,169.03
2024-03-12T00:02:53.596Z,168.96
2024-03-12T00:03:53.657Z,168.71
2024-03-12T00:04:53.705Z,168.43
2024-03-12T00:05:53.736Z,168.94
2024-03-12T00:06:53.853Z,168.82
2024-03-12T00:07:53.860Z,169.00
2024-03-12T00:08:53.886Z,167.75
2024-03-12T00:09:53.951Z,168.57
2024-03-12T00:10:54.030Z,169.71
2024-03-12T00:11:54.034Z,168.92
2024-03-12T00:12:54.123Z,168.21
2024-03-12T00:13:54.128Z,168.48
2024-03-12T00:14:54.144Z,169.04
2024-03-12T00:15:54.278Z,169.03
2024-03-12T00:16:54.255Z,169.67
2024-03-12T00:17:54.312Z,168.32
2024-03-12T00:18:54.366Z,167.70
2024-03-12T00:19:54.360Z,167.73
2024-03-12T00:20:54.405Z,169.00
2024-03-12T00:21:54.481Z,168.35
2024-03-12T00:22:54.469Z,168.48
2024-03-12T00:23:54.543Z,168.19
2024-03-12T00:24:54.608Z,168.09
2024-03-12T00:25:54.603Z,169.12
2024-03-12T00:26:54.689Z,167.52
2024-03-12T00:27:54.706Z,167.17
2024-03-12T00:28:54.726Z,167.85
2024-03-12T00:29:54.794Z,166.26
2024-03-12T00:30:54.874Z,167.77
2024-03-12T00:31:54.892Z,167.38
2024-03-12T00:32:55.011Z,167.98
2024-03-12T00:33:55.247Z,167.30
2024-03-12T00:34:55.074Z,168.18
2024-03-12T00:35:55.132Z,167.51
2024-03-12T00:36:55.206Z,167.83
2024-03-12T00:37:55.226Z,167.32
2024-03-12T00:38:55.289Z,167.02
2024-03-12T00:39:55.378Z,167.23
2024-03-12T00:40:55.349Z,167.00
2024-03-12T00:41:55.403Z,168.56
2024-03-12T00:42:55.482Z,166.80
2024-03-12T00:43:55.509Z,167.20
2024-03-12T00:44:55.550Z,166.67
2024-03-12T00:45:55.631Z,167.23
2024-03-12T00:46:55.607Z,165.10
2024-03-12T00:47:55.745Z,167.70
2024-03-12T00:48:55.723Z,167.04
2024-03-12T00:49:58.544Z,164.98
2024-03-12T00:50:55.695Z,166.77
2024-03-12T00:51:55.764Z,166.10
2024-03-12T00:52:55.698Z,166.47
2024-03-12T00:53:55.702Z,166.91
2024-03-12T00:54:55.776Z,166.48
2024-03-12T00:55:55.701Z,166.95
2024-03-12T00:56:55.715Z,166.66
2024-03-12T00:57:55.781Z,166.55
2024-03-12T00:58:55.706Z,165.60
2024-03-12T00:59:55.708Z,165.24
2024-03-12T01:00:55.762Z,166.84
2024-03-12T01:01:55.762Z,165.80
2024-03-12T01:02:55.864Z,166.04
2024-03-12T01:03:55.842Z,165.96
2024-03-12T01:04:55.714Z,167.57
2024-03-12T01:05:55.724Z,166.30
2024-03-12T01:06:55.761Z,167.24
2024-03-12T01:07:55.728Z,165.94
2024-03-12T01:08:55.730Z,167.06
2024-03-12T01:09:55.790Z,166.54
2024-03-12T01:10:55.753Z,165.02
2024-03-12T01:11:55.729Z,166.22
2024-03-12T01:12:55.782Z,165.49
2024-03-12T01:13:55.742Z,167.25
2024-03-12T01:14:55.742Z,165.69
2024-03-12T01:15:55.764Z,165.70
2024-03-12T01:16:55.748Z,166.07
2024-03-12T01:17:55.754Z,164.13
2024-03-12T01:18:55.771Z,164.82
2024-03-12T01:19:55.741Z,164.77
2024-03-12T01:20:55.755Z,164.71
2024-03-12T01:21:55.862Z,165.85
2024-03-12T01:22:56.145Z,164.68
2024-03-12T01:23:55.775Z,164.54
2024-03-12T01:24:55.800Z,164.84
2024-03-12T01:25:55.757Z,164.33
2024-03-12T01:26:55.756Z,163.96
2024-03-12T01:27:55.795Z,164.62
2024-03-12T01:28:55.778Z,165.52
2024-03-12T01:29:55.771Z,164.90
2024-03-12T01:30:55.811Z,165.14
2024-03-12T01:31:55.770Z,164.42
2024-03-12T01:32:56.003Z,165.76
2024-03-12T01:33:55.814Z,163.55
2024-03-12T01:34:55.776Z,165.42
2024-03-12T01:35:55.775Z,165.15
2024-03-12T01:36:55.817Z,164.38
2024-03-12T01:37:55.798Z,165.59
2024-03-12T01:38:55.939Z,164.48
2024-03-12T01:39:55.848Z,164.48
2024-03-12T01:40:55.866Z,165.54
2024-03-12T01:41:55.873Z,163.34
2024-03-12T01:42:55.921Z,163.81
2024-03-12T01:43:55.920Z,163.77
2024-03-12T01:44:55.955Z,164.34
2024-03-12T01:45:56.021Z,164.25
2024-03-12T01:46:56.016Z,164.84
2024-03-12T01:47:56.207Z,163.56
2024-03-12T01:48:56.121Z,164.19
2024-03-12T01:49:56.121Z,163.42
2024-03-12T01:50:56.128Z,163.16
2024-03-12T01:51:56.213Z,163.68
2024-03-12T01:52:56.199Z,164.90
2024-03-12T01:53:56.223Z,163.65
2024-03-12T01:54:56.306Z,163.11
2024-03-12T01:55:56.286Z,164.43
2024-03-12T01:56:56.305Z,162.18
2024-03-12T01:57:56.357Z,163.74
2024-03-12T01:58:56.360Z,162.99
2024-03-12T01:59:56.381Z,163.89
2024-03-12T02:00:56.523Z,163.18
2024-03-12T02:01:56.486Z,163.65
2024-03-12T02:02:56.452Z,163.70
2024-03-12T02:03:56.506Z,161.20
2024-03-12T02:04:56.518Z,161.85
2024-03-12T02:05:56.577Z,162.59
2024-03-12T02:06:56.671Z,162.56
2024-03-12T02:07:56.594Z,162.19
2024-03-12T02:08:56.596Z,162.43
2024-03-12T02:09:56.665Z,164.26
2024-03-12T02:10:56.643Z,162.84
2024-03-12T02:11:56.630Z,162.02
2024-03-12T02:12:56.720Z,161.07
2024-03-12T02:13:56.657Z,162.02
2024-03-12T02:14:56.683Z,163.45
2024-03-12T02:15:56.703Z,162.09
2024-03-12T02:16:56.682Z,161.69
2024-03-12T02:17:56.734Z,162.12
2024-03-12T02:18:56.773Z,162.87
2024-03-12T02:19:56.744Z,161.74
2024-03-12T02:20:56.753Z,161.93
2024-03-12T02:21:56.821Z,161.79
2024-03-12T02:22:56.960Z,162.20
2024-03-12T02:23:56.790Z,162.11
2024-03-12T02:24:56.844Z,161.55
2024-03-12T02:25:56.845Z,161.93
2024-03-12T02:26:56.831Z,160.42
2024-03-12T02:27:56.882Z,161.14
2024-03-12T02:28:56.863Z,160.69
2024-03-12T02:29:56.916Z,162.35
2024-03-12T02:30:56.961Z,161.51
2024-03-12T02:31:56.883Z,160.73
2024-03-12T02:32:56.958Z,161.35
2024-03-12T02:33:56.933Z,160.71
2024-03-12T02:34:56.908Z,161.34
2024-03-12T02:35:56.920Z,161.74
2024-03-12T02:36:56.987Z,159.92
2024-03-12T02:37:56.934Z,160.41
2024-03-12T02:38:56.953Z,160.96
2024-03-12T02:39:56.999Z,160.18
2024-03-12T02:40:56.987Z,160.74
2024-03-12T02:41:57.005Z,159.47
2024-03-12T02:42:57.087Z,161.77
2024-03-12T02:43:57.047Z,159.28
2024-03-12T02:44:57.050Z,160.71
2024-03-12T02:45:57.120Z,159.51
2024-03-12T02:46:57.072Z,160.74
2024-03-12T02:47:57.166Z,159.52
2024-03-12T02:48:57.171Z,159.51
2024-03-12T02:49:57.105Z,158.71
2024-03-12T02:50:57.123Z,159.59
2024-03-12T02:51:57.130Z,158.86
2024-03-12T02:52:57.129Z,159.18
2024-03-12T02:53:57.168Z,159.18
2024-03-12T02:54:57.246Z,159.21
2024-03-12T02:55:57.197Z,160.00
2024-03-12T02:56:57.257Z,159.11
2024-03-12T02:57:57.333Z,158.61
2024-03-12T02:58:57.234Z,159.72
2024-03-12T02:59:57.246Z,159.93
2024-03-12T03:00:57.322Z,159.34
2024-03-12T03:01:57.336Z,158.97
2024-03-12T03:02:57.317Z,159.20
2024-03-12T03:03:57.403Z,158.98
2024-03-12T03:04:57.392Z,160.18
2024-03-12T03:05:57.372Z,160.65
2024-03-12T03:06:57.406Z,158.53
2024-03-12T03:07:57.405Z,158.89
2024-03-12T03:08:57.415Z,159.79
2024-03-12T03:09:57.455Z,159.16
2024-03-12T03:10:57.428Z,160.14
2024-03-12T03:11:57.439Z,159.62
2024-03-12T03:12:57.504Z,159.49
2024-03-12T03:13:57.500Z,158.52
2024-03-12T03:14:57.517Z,158.96
2024-03-12T03:15:57.549Z,159.34
2024-03-12T03:16:57.535Z,158.20
2024-03-12T03:17:57.589Z,159.57
2024-03-12T03:18:57.579Z,159.61
2024-03-12T03:19:57.582Z,159.18
2024-03-12T03:20:57.674Z,158.27
2024-03-12T03:21:57.650Z,158.28
2024-03-12T03:22:57.629Z,160.45
2024-03-12T03:23:57.630Z,158.15
2024-03-12T03:24:57.673Z,157.76
2024-03-12T03:25:57.644Z,158.83
2024-03-12T03:26:57.668Z,157.42
2024-03-12T03:27:57.694Z,158.44
2024-03-12T03:28:57.698Z,157.87
2024-03-12T03:29:57.689Z,159.33
2024-03-12T03:30:58.241Z,158.63
2024-03-12T03:31:57.702Z,158.58
2024-03-12T03:32:57.762Z,158.48
2024-03-12T03:33:57.772Z,157.93
2024-03-12T03:34:57.738Z,158.89
2024-03-12T03:35:57.757Z,158.07
2024-03-12T03:36:57.846Z,157.88
2024-03-12T03:37:57.782Z,156.60
2024-03-12T03:38:57.800Z,158.58
2024-03-12T03:39:57.824Z,157.53
2024-03-12T03:40:57.823Z,155.88
2024-03-12T03:41:57.835Z,157.30
2024-03-12T03:42:58.150Z,157.04
2024-03-12T03:43:57.857Z,157.89
2024-03-12T03:44:57.873Z,158.63
2024-03-12T03:45:57.942Z,156.97
2024-03-12T03:46:57.882Z,156.68
2024-03-12T03:47:57.953Z,157.06
2024-03-12T03:48:58.255Z,157.33
2024-03-12T03:49:57.910Z,155.82
2024-03-12T03:50:57.928Z,157.21
2024-03-12T03:51:57.979Z,157.85
2024-03-12T03:52:57.942Z,157.68
2024-03-12T03:53:57.956Z,157.30
2024-03-12T03:54:58.022Z,156.80
2024-03-12T03:55:57.978Z,155.71
2024-03-12T03:56:57.975Z,157.88
2024-03-12T03:57:58.034Z,156.09
2024-03-12T03:58:58.008Z,155.94
2024-03-12T03:59:58.078Z,157.21
2024-03-12T04:00:58.093Z,157.49
2024-03-12T04:01:58.070Z,156.14
2024-03-12T04:02:58.051Z,157.71
2024-03-12T04:03:58.101Z,156.94
2024-03-12T04:04:58.074Z,155.95
2024-03-12T04:05:58.065Z,157.36
2024-03-12T04:06:58.108Z,157.15
2024-03-12T04:07:58.086Z,156.19
2024-03-12T04:08:58.087Z,156.71
2024-03-12T04:09:58.136Z,156.59
2024-03-12T04:10:58.128Z,156.99
2024-03-12T04:11:58.106Z,156.25
2024-03-12T04:12:58.220Z,155.75
2024-03-12T04:13:58.121Z,155.12
2024-03-12T04:14:58.143Z,157.73
2024-03-12T04:15:58.188Z,155.51
2024-03-12T04:16:58.165Z,156.80
2024-03-12T04:18:05.372Z,50.00
2024-03-12T04:19:05.351Z,50.00
2024-03-12T04:20:05.327Z,50.00
2024-03-12T04:21:05.351Z,50.00
2024-03-12T04:22:05.449Z,50.00
2024-03-12T04:23:05.361Z,51.36
2024-03-12T04:24:05.348Z,50.17
2024-03-12T04:25:05.407Z,52.34
2024-03-12T04:26:05.353Z,53.65
2024-03-12T04:27:05.344Z,51.90
2024-03-12T04:28:05.374Z,51.42
2024-03-12T04:29:05.362Z,50.65
2024-03-12T04:30:05.356Z,50.86
2024-03-12T04:31:12.739Z,50.00
2024-03-12T04:32:12.540Z,50.00
2024-03-12T04:33:12.663Z,50.00
2024-03-12T04:34:12.578Z,50.00
2024-03-12T04:35:12.531Z,50.00
2024-03-12T04:36:12.542Z,50.83
2024-03-12T04:37:12.578Z,52.91
2024-03-12T04:38:15.302Z,51.71
2024-03-12T04:39:12.543Z,51.77
2024-03-12T04:40:12.907Z,51.98
2024-03-12T04:41:12.559Z,51.95
2024-03-12T04:42:12.543Z,52.14
2024-03-12T04:43:12.609Z,51.76
2024-03-12T04:44:12.550Z,53.07
2024-03-12T04:45:12.556Z,51.52
2024-03-12T04:46:12.735Z,51.75
2024-03-12T04:47:12.565Z,51.12
2024-03-12T04:48:12.572Z,51.78
2024-03-12T04:49:12.613Z,50.12
2024-03-12T04:50:12.562Z,53.10
2024-03-12T04:51:12.603Z,53.47
2024-03-12T04:52:12.578Z,53.09
2024-03-12T04:53:12.571Z,53.34
2024-03-12T04:54:12.567Z,54.26
2024-03-12T04:55:12.595Z,54.40
2024-03-12T04:56:12.636Z,50.06
2024-03-12T04:57:12.570Z,50.88
2024-03-12T04:58:12.623Z,52.88
2024-03-12T04:59:12.588Z,52.55
2024-03-12T05:00:12.578Z,51.84
2024-03-12T05:01:12.690Z,54.21
2024-03-12T05:02:12.574Z,50.45
2024-03-12T05:03:12.591Z,52.93
2024-03-12T05:04:18.511Z,50.75
2024-03-12T05:05:13.610Z,50.85
2024-03-12T05:06:12.593Z,51.22
2024-03-12T05:07:12.598Z,52.01
2024-03-12T05:08:12.591Z,52.61
2024-03-12T05:09:12.586Z,52.35
2024-03-12T05:10:12.956Z,53.38
2024-03-12T05:11:12.646Z,53.21
2024-03-12T05:12:12.604Z,51.88
2024-03-12T05:13:12.624Z,53.53
2024-03-12T05:14:12.591Z,51.72
2024-03-12T05:15:12.593Z,52.03
2024-03-12T05:16:12.645Z,51.90
2024-03-12T05:17:12.605Z,54.29
2024-03-12T05:18:12.674Z,52.32
2024-03-12T05:19:13.117Z,51.72
2024-03-12T05:20:12.613Z,51.59
2024-03-12T05:21:12.664Z,52.11
2024-03-12T05:22:12.702Z,52.47
2024-03-12T05:23:12.616Z,52.35
2024-03-12T05:24:12.620Z,50.91
2024-03-12T05:25:12.659Z,53.62
2024-03-12T05:26:12.653Z,52.75
2024-03-12T05:27:12.625Z,52.40
2024-03-12T05:28:12.657Z,53.43
2024-03-12T05:29:12.632Z,52.26
2024-03-12T05:30:12.635Z,50.72
2024-03-12T05:31:12.701Z,52.61
2024-03-12T05:32:12.640Z,53.21
2024-03-12T05:33:12.743Z,51.33
2024-03-12T05:34:12.671Z,52.94
2024-03-12T05:35:12.650Z,51.75
2024-03-12T05:36:12.656Z,50.31
2024-03-12T05:37:12.723Z,53.72
2024-03-12T05:38:13.001Z,51.40
2024-03-12T05:39:12.659Z,53.81
2024-03-12T05:40:12.754Z,52.43
2024-03-12T05:41:12.692Z,52.60
2024-03-12T05:42:12.698Z,53.30
2024-03-12T05:43:12.735Z,53.63
2024-03-12T05:44:12.673Z,51.17
2024-03-12T05:45:12.675Z,50.00
2024-03-12T05:46:12.800Z,53.17
2024-03-12T05:47:12.677Z,51.40
2024-03-12T05:48:12.768Z,54.55
2024-03-12T05:49:12.755Z,53.95
2024-03-12T05:50:12.683Z,54.67
2024-03-12T05:51:12.694Z,52.82
2024-03-12T05:52:12.736Z,54.59
2024-03-12T05:53:12.786Z,53.43
2024-03-12T05:54:12.703Z,55.46
2024-03-12T05:55:12.738Z,51.52
2024-03-12T05:56:15.933Z,53.84
2024-03-12T05:57:13.705Z,53.90
2024-03-12T05:58:12.769Z,53.95
2024-03-12T05:59:12.701Z,54.22
2024-03-12T06:00:12.757Z,54.05
2024-03-12T06:01:12.843Z,54.87
2024-03-12T06:02:12.719Z,55.10
2024-03-12T06:03:12.703Z,55.60
2024-03-12T06:04:12.915Z,53.80
2024-03-12T06:05:12.706Z,53.69
2024-03-12T06:06:12.698Z,55.50
2024-03-12T06:07:12.803Z,54.25
2024-03-12T06:08:12.711Z,54.02
2024-03-12T06:09:12.708Z,54.78
2024-03-12T06:10:12.919Z,51.61
2024-03-12T06:11:12.730Z,51.96
2024-03-12T06:12:12.722Z,52.49
2024-03-12T06:13:12.748Z,54.52
2024-03-12T06:14:12.716Z,54.92
2024-03-12T06:15:12.719Z,53.25
2024-03-12T06:16:12.886Z,52.85
2024-03-12T06:17:12.714Z,54.47
2024-03-12T06:18:12.716Z,54.69
2024-03-12T06:19:12.774Z,54.22
2024-03-12T06:20:12.722Z,57.94
2024-03-12T06:21:12.719Z,53.62
2024-03-12T06:22:12.792Z,52.78
2024-03-12T06:23:12.722Z,51.12
2024-03-12T06:24:12.762Z,50.21
2024-03-12T06:25:12.837Z,50.00
2024-03-12T06:26:12.773Z,53.54
2024-03-12T06:27:12.748Z,51.09
2024-03-12T06:28:12.948Z,54.49
2024-03-12T06:29:12.734Z,53.15
2024-03-12T06:30:13.597Z,54.53
2024-03-12T06:31:12.963Z,54.35
2024-03-12T06:32:12.734Z,56.76
2024-03-12T06:33:13.386Z,53.01
2024-03-12T06:34:12.851Z,53.53
2024-03-12T06:35:12.738Z,54.62
2024-03-12T06:36:12.756Z,52.69
2024-03-12T06:37:12.936Z,53.22
2024-03-12T06:38:12.758Z,53.64
2024-03-12T06:39:12.745Z,52.12
2024-03-12T06:40:12.842Z,52.22
2024-03-12T06:41:13.688Z,54.25
2024-03-12T06:42:12.829Z,52.46
2024-03-12T06:43:12.901Z,51.67
2024-03-12T06:44:12.769Z,51.86
2024-03-12T06:45:12.792Z,54.64
2024-03-12T06:46:12.812Z,51.49
2024-03-12T06:47:12.770Z,53.60
2024-03-12T06:48:12.828Z,52.48
2024-03-12T06:49:12.841Z,54.43
2024-03-12T06:50:12.764Z,53.39
2024-03-12T06:51:12.768Z,52.64
2024-03-12T06:52:12.816Z,52.01
2024-03-12T06:53:12.787Z,54.43
2024-03-12T06:54:12.810Z,55.34
2024-03-12T06:55:16.548Z,57.30
2024-03-12T06:56:12.917Z,57.41
2024-03-12T06:57:12.831Z,57.95
2024-03-12T06:58:13.206Z,59.08
2024-03-12T06:59:12.840Z,60.67
2024-03-12T07:00:12.819Z,65.31
2024-03-12T07:01:13.637Z,65.01
2024-03-12T07:02:12.866Z,65.01
2024-03-12T07:03:12.814Z,69.06
2024-03-12T07:04:13.711Z,67.85
2024-03-12T07:05:13.706Z,67.52
2024-03-12T07:06:12.826Z,67.50
2024-03-12T07:07:12.892Z,67.68
2024-03-12T07:08:12.845Z,67.99
2024-03-12T07:09:15.479Z,69.77
2024-03-12T07:10:12.947Z,71.98
2024-03-12T07:11:12.856Z,73.95
2024-03-12T07:12:12.836Z,74.25
2024-03-12T07:13:12.980Z,75.09
2024-03-12T07:14:12.835Z,74.71
2024-03-12T07:15:12.838Z,80.10
2024-03-12T07:16:12.880Z,78.24
2024-03-12T07:17:12.845Z,78.14
2024-03-12T07:18:12.905Z,76.52
2024-03-12T07:19:12.923Z,78.11
2024-03-12T07:20:12.858Z,81.15
2024-03-12T07:21:12.937Z,80.76
2024-03-12T07:22:13.007Z,82.89
2024-03-12T07:23:15.701Z,83.58
2024-03-12T07:24:12.847Z,83.72
2024-03-12T07:25:12.853Z,84.59
2024-03-12T07:26:12.859Z,86.44
2024-03-12T07:27:12.860Z,87.23
2024-03-12T07:28:12.976Z,90.94
2024-03-12T07:29:12.871Z,90.74
2024-03-12T07:30:13.621Z,90.31
2024-03-12T07:31:12.878Z,90.30
2024-03-12T07:32:13.731Z,86.27
2024-03-12T07:33:12.911Z,87.27
2024-03-12T07:34:14.114Z,85.48
2024-03-12T07:35:12.884Z,88.20
2024-03-12T07:36:12.917Z,86.98
2024-03-12T07:37:14.002Z,87.30
2024-03-12T07:38:12.923Z,87.59
2024-03-12T07:39:12.937Z,89.54
2024-03-12T07:40:13.005Z,89.64
2024-03-12T07:41:12.922Z,94.24
2024-03-12T07:42:15.215Z,98.75
2024-03-12T07:43:13.327Z,97.12
2024-03-12T07:44:13.231Z,96.44
2024-03-12T07:45:13.302Z,98.79
2024-03-12T07:46:13.489Z,96.70
2024-03-12T07:47:13.423Z,96.08
2024-03-12T07:48:13.511Z,92.91
2024-03-12T07:49:13.592Z,91.20
2024-03-12T07:50:13.611Z,93.35
2024-03-12T07:51:13.652Z,94.41
2024-03-12T07:52:13.898Z,98.54
2024-03-12T07:53:13.885Z,103.15
2024-03-12T07:54:13.805Z,106.43
2024-03-12T07:55:13.946Z,108.51
2024-03-12T07:56:13.911Z,108.04
2024-03-12T07:57:13.952Z,108.26
2024-03-12T07:58:14.281Z,110.02
2024-03-12T07:59:14.079Z,111.59
2024-03-12T08:00:14.154Z,113.90
2024-03-12T08:01:14.323Z,113.45
2024-03-12T08:02:14.389Z,113.80
2024-03-12T08:03:15.158Z,119.73
2024-03-12T08:04:14.596Z,121.04
2024-03-12T08:05:14.520Z,120.82
2024-03-12T08:06:14.493Z,123.55
2024-03-12T08:07:14.805Z,123.19
2024-03-12T08:08:14.682Z,127.43
2024-03-12T08:09:14.684Z,128.39
2024-03-12T08:10:14.834Z,127.67
2024-03-12T08:11:14.845Z,126.12
2024-03-12T08:12:17.664Z,126.18
2024-03-12T08:13:14.936Z,127.37
2024-03-12T08:14:14.903Z,127.56
2024-03-12T08:15:14.950Z,131.48
2024-03-12T08:16:14.989Z,132.56
2024-03-12T08:17:14.896Z,133.03
2024-03-12T08:18:20.674Z,134.68
2024-03-12T08:19:15.930Z,134.87
2024-03-12T08:20:15.034Z,135.50
2024-03-12T08:21:14.893Z,136.11
2024-03-12T08:22:14.920Z,137.32
2024-03-12T08:23:14.904Z,138.85
2024-03-12T08:24:14.897Z,136.74
2024-03-12T08:25:15.875Z,138.89
2024-03-12T08:26:14.896Z,139.82
2024-03-12T08:27:14.966Z,138.54
2024-03-12T08:28:15.764Z,139.94
2024-03-12T08:29:15.068Z,141.41
2024-03-12T08:30:15.153Z,140.80
2024-03-12T08:31:24.771Z,143.43
2024-03-12T08:32:16.302Z,143.49
2024-03-12T08:33:15.397Z,143.70
2024-03-12T08:34:15.299Z,145.04
2024-03-12T08:35:15.254Z,146.06
2024-03-12T08:36:15.248Z,147.99
2024-03-12T08:37:15.355Z,150.66
2024-03-12T08:38:15.226Z,147.89
2024-03-12T08:39:15.240Z,147.07
2024-03-12T08:40:15.470Z,146.93
2024-03-12T08:41:15.349Z,147.93
2024-03-12T08:42:15.405Z,147.18
2024-03-12T08:43:15.541Z,149.27
2024-03-12T08:44:15.527Z,148.31
2024-03-12T08:45:15.571Z,148.95
2024-03-12T08:46:15.675Z,148.54
2024-03-12T08:47:15.765Z,148.19
2024-03-12T08:48:15.880Z,150.98
2024-03-12T08:49:15.956Z,147.05
2024-03-12T08:50:15.879Z,147.24
2024-03-12T08:51:15.892Z,144.08
2024-03-12T08:52:16.032Z,145.22
2024-03-12T08:53:16.509Z,142.32
2024-03-12T08:54:16.002Z,140.89
2024-03-12T08:55:16.756Z,137.32
2024-03-12T08:56:16.003Z,135.36
2024-03-12T08:57:16.658Z,133.66
2024-03-12T08:58:16.267Z,130.89
2024-03-12T08:59:16.201Z,129.60
2024-03-12T09:00:16.263Z,124.50
2024-03-12T09:01:16.724Z,125.26
2024-03-12T09:02:16.438Z,121.83
2024-03-12T09:03:16.477Z,118.80
2024-03-12T09:04:16.560Z,117.82
2024-03-12T09:05:16.604Z,115.03
2024-03-12T09:06:16.681Z,113.15
2024-03-12T09:07:16.805Z,110.86
2024-03-12T09:08:16.811Z,106.70
2024-03-12T09:09:16.871Z,104.54
2024-03-12T09:10:17.070Z,104.24
2024-03-12T09:11:17.073Z,104.84
2024-03-12T09:12:17.074Z,103.59
2024-03-12T09:13:17.133Z,102.18
2024-03-12T09:14:17.185Z,97.98
2024-03-12T09:15:17.338Z,96.51
2024-03-12T09:16:17.353Z,96.67
2024-03-12T09:17:17.311Z,95.73
2024-03-12T09:18:17.370Z,93.89
2024-03-12T09:19:17.365Z,89.53
2024-03-12T09:20:17.613Z,90.01
2024-03-12T09:21:17.403Z,88.36
2024-03-12T09:22:17.466Z,83.60
2024-03-12T09:23:17.492Z,85.54
2024-03-12T09:24:17.451Z,83.43
2024-03-12T09:25:19.690Z,79.11
2024-03-12T09:26:17.505Z,82.08
2024-03-12T09:27:17.537Z,75.52
2024-03-12T09:28:17.670Z,74.03
2024-03-12T09:29:17.636Z,68.41
2024-03-12T09:30:17.686Z,67.39
2024-03-12T09:31:17.793Z,68.77
2024-03-12T09:32:17.791Z,69.40
2024-03-12T09:33:17.947Z,67.94
2024-03-12T09:34:18.689Z,67.67
2024-03-12T09:35:17.961Z,65.01
2024-03-12T09:36:18.013Z,69.97
2024-03-12T09:37:18.864Z,67.88
2024-03-12T09:38:18.179Z,68.57
2024-03-12T09:39:18.231Z,66.71
2024-03-12T09:40:18.318Z,63.58
2024-03-12T09:41:18.319Z,58.82
2024-03-12T09:42:18.390Z,59.92
2024-03-12T09:43:18.461Z,56.42
2024-03-12T09:44:18.476Z,54.14
2024-03-12T09:45:18.772Z,51.13
2024-03-12T09:46:18.614Z,50.17
2024-03-12T09:47:18.546Z,53.79
2024-03-12T09:48:18.572Z,51.92
2024-03-12T09:49:18.601Z,50.00
2024-03-12T09:50:18.587Z,51.08
2024-03-12T09:51:18.609Z,54.35
2024-03-12T09:52:18.691Z,51.97
2024-03-12T09:53:18.809Z,52.13
2024-03-12T09:54:18.674Z,49.99
2024-03-12T09:55:18.750Z,54.01
2024-03-12T09:56:18.763Z,54.50
2024-03-12T09:57:19.254Z,52.38
2024-03-12T09:58:18.803Z,53.61
2024-03-12T09:59:18.781Z,53.84
2024-03-12T10:00:18.812Z,50.00
2024-03-12T10:01:18.950Z,55.00
2024-03-12T10:02:18.927Z,56.36
2024-03-12T10:03:18.900Z,50.00
2024-03-12T10:04:19.046Z,54.78
2024-03-12T10:05:18.963Z,50.00
2024-03-12T10:06:19.010Z,53.46
2024-03-12T10:07:19.049Z,56.85
2024-03-12T10:08:19.326Z,50.00
2024-03-12T10:09:19.109Z,54.81
2024-03-12T10:10:19.275Z,54.61
2024-03-12T10:11:19.197Z,51.43
2024-03-12T10:12:19.234Z,48.19
2024-03-12T10:13:19.568Z,54.34
2024-03-12T10:14:19.346Z,51.11
2024-03-12T10:15:19.412Z,49.36
2024-03-12T10:16:19.609Z,53.79
2024-03-12T10:17:19.588Z,50.39
2024-03-12T10:18:19.630Z,50.66
2024-03-12T10:19:19.818Z,55.24
2024-03-12T10:20:19.746Z,55.34
2024-03-12T10:21:19.801Z,51.33
2024-03-12T10:22:19.931Z,51.50
2024-03-12T10:23:19.964Z,51.59
2024-03-12T10:24:20.015Z,52.60
2024-03-12T10:25:20.127Z,50.79
2024-03-12T10:26:20.133Z,52.21
2024-03-12T10:27:20.181Z,56.37
2024-03-12T10:28:20.799Z,52.71
2024-03-12T10:29:20.307Z,49.83
2024-03-12T10:30:20.312Z,55.55
2024-03-12T10:31:20.343Z,53.26
2024-03-12T10:32:20.411Z,47.91
2024-03-12T10:33:20.395Z,52.65
2024-03-12T10:34:20.490Z,52.36
2024-03-12T10:35:20.442Z,53.40
2024-03-12T10:36:20.482Z,51.41
2024-03-12T10:37:20.574Z,52.73
2024-03-12T10:38:20.577Z,53.46
2024-03-12T10:39:20.630Z,53.26
2024-03-12T10:40:20.858Z,50.27
2024-03-12T10:41:22.628Z,51.85
2024-03-12T10:42:23.278Z,53.14
2024-03-12T10:43:20.940Z,54.24
2024-03-12T10:44:20.961Z,52.08
2024-03-12T10:45:20.976Z,50.00
2024-03-12T10:46:21.289Z,51.00
2024-03-12T10:47:21.015Z,50.45
2024-03-12T10:48:21.709Z,50.00
2024-03-12T10:49:21.067Z,51.93
2024-03-12T10:50:21.048Z,52.39
2024-03-12T10:51:21.112Z,53.35
2024-03-12T10:52:21.105Z,53.36
2024-03-12T10:53:21.089Z,51.45
2024-03-12T10:54:21.138Z,52.91
2024-03-12T10:55:21.208Z,55.68
2024-03-12T10:56:21.303Z,54.98
2024-03-12T10:57:21.277Z,53.27
2024-03-12T10:58:21.402Z,52.15
2024-03-12T10:59:21.384Z,53.95
2024-03-12T11:00:21.488Z,53.20
2024-03-12T11:01:21.834Z,51.78
2024-03-12T11:02:21.568Z,51.74
2024-03-12T11:03:21.506Z,49.10
2024-03-12T11:04:21.587Z,48.42
2024-03-12T11:05:21.596Z,50.71
2024-03-12T11:06:21.562Z,47.74
2024-03-12T11:07:22.318Z,51.49
2024-03-12T11:08:21.520Z,51.26
2024-03-12T11:09:21.521Z,50.16
2024-03-12T11:10:21.589Z,51.20
2024-03-12T11:11:22.348Z,51.10
2024-03-12T11:12:21.517Z,51.88
2024-03-12T11:13:21.640Z,52.40
2024-03-12T11:14:21.668Z,54.02
2024-03-12T11:15:21.519Z,53.23
2024-03-12T11:16:21.640Z,52.32
2024-03-12T11:17:21.543Z,52.96
2024-03-12T11:18:21.517Z,53.37
2024-03-12T11:19:21.692Z,52.75
2024-03-12T11:20:24.035Z,50.00
2024-03-12T11:21:21.603Z,50.01
2024-03-12T11:22:21.616Z,48.15
2024-03-12T11:23:21.599Z,43.79
2024-03-12T11:24:21.607Z,44.05
2024-03-12T11:25:21.671Z,41.41
2024-03-12T11:26:35.401Z,50.78
2024-03-12T11:27:22.613Z,48.26
2024-03-12T11:28:21.937Z,45.70
2024-03-12T11:29:21.634Z,45.96
2024-03-12T11:30:21.627Z,42.51
2024-03-12T11:31:21.681Z,40.79
2024-03-12T11:32:21.625Z,50.94
2024-03-12T11:33:21.635Z,52.23
2024-03-12T11:34:21.623Z,50.18
2024-03-12T11:35:21.632Z,50.93
2024-03-12T11:36:21.637Z,50.00
2024-03-12T11:37:21.672Z,51.76
2024-03-12T11:38:21.641Z,50.96
2024-03-12T11:39:21.632Z,50.60
2024-03-12T11:40:21.641Z,53.17
2024-03-12T11:41:21.646Z,54.84
2024-03-12T11:42:21.640Z,52.82
2024-03-12T11:43:21.645Z,55.89
2024-03-12T11:44:21.639Z,55.52
2024-03-12T11:45:21.665Z,56.87
2024-03-12T11:46:22.010Z,57.91
2024-03-12T11:47:21.637Z,55.47
2024-03-12T11:48:21.718Z,53.00
2024-03-12T11:49:21.645Z,51.55
2024-03-12T11:50:21.658Z,50.12
2024-03-12T11:51:21.641Z,52.31
2024-03-12T11:52:21.639Z,52.85
2024-03-12T11:53:21.641Z,52.56
2024-03-12T11:54:21.659Z,53.01
2024-03-12T11:55:21.662Z,54.13
2024-03-12T11:56:21.647Z,54.34
2024-03-12T11:57:21.664Z,54.54
2024-03-12T11:58:21.661Z,52.95
2024-03-12T11:59:21.664Z,54.42
2024-03-12T12:00:21.673Z,51.66
2024-03-12T12:01:21.849Z,52.49
2024-03-12T12:02:22.003Z,52.19
2024-03-12T12:03:21.666Z,56.38
2024-03-12T12:04:21.732Z,51.82
2024-03-12T12:05:21.670Z,50.06
2024-03-12T12:06:21.665Z,51.32
2024-03-12T12:07:21.742Z,50.00
2024-03-12T12:08:21.670Z,58.81
2024-03-12T12:09:21.689Z,58.17
2024-03-12T12:10:21.712Z,58.71
2024-03-12T12:11:21.726Z,56.91
2024-03-12T12:12:21.827Z,59.09
2024-03-12T12:13:21.726Z,58.59
2024-03-12T12:14:21.735Z,57.71
2024-03-12T12:15:21.760Z,55.92
2024-03-12T12:16:21.798Z,56.38
2024-03-12T12:17:21.793Z,57.34
2024-03-12T12:18:21.790Z,58.64
2024-03-12T12:19:25.554Z,53.92
2024-03-12T12:20:22.803Z,52.65
2024-03-12T12:21:21.798Z,53.68
2024-03-12T12:22:21.898Z,54.54
2024-03-12T12:23:21.816Z,55.98
2024-03-12T12:24:21.817Z,56.44
2024-03-12T12:25:21.863Z,56.24
2024-03-12T12:26:21.802Z,54.51
2024-03-12T12:27:21.810Z,57.95
2024-03-12T12:28:21.851Z,57.53
2024-03-12T12:29:21.824Z,52.62
2024-03-12T12:30:21.839Z,52.32
2024-03-12T12:31:21.860Z,54.32
2024-03-12T12:32:21.814Z,65.33
2024-03-12T12:33:21.842Z,65.55
2024-03-12T12:34:21.864Z,71.47
2024-03-12T12:35:22.317Z,76.44
2024-03-12T12:36:21.821Z,81.46
2024-03-12T12:37:22.010Z,86.00
2024-03-12T12:38:21.829Z,87.18
2024-03-12T12:39:21.820Z,90.41
2024-03-12T12:40:22.201Z,92.81
2024-03-12T12:41:21.828Z,95.73
2024-03-12T12:42:21.833Z,95.36